sensor_id;sensor_type;location;lat;lon;timestamp;pressure;altitude;pressure_sealevel;temperature;humidity
61039;BME280;46919;45.816;3.104;2023-07-31T00:01:55;98120.34;;;15.90;69.42
61039;BME280;46919;45.816;3.104;2023-07-31T00:04:20;98111.81;;;15.82;70.31
61039;BME280;46919;45.816;3.104;2023-07-31T00:06:46;98114.69;;;15.75;70.40
61039;BME280;46919;45.816;3.104;2023-07-31T00:09:11;98114.34;;;15.71;70.51
61039;BME280;46919;45.816;3.104;2023-07-31T00:11:36;98122.41;;;15.61;71.32
61039;BME280;46919;45.816;3.104;2023-07-31T00:14:02;98119.44;;;15.63;71.21
61039;BME280;46919;45.816;3.104;2023-07-31T00:16:27;98113.97;;;15.63;71.38
61039;BME280;46919;45.816;3.104;2023-07-31T00:18:53;98119.13;;;15.59;71.46
61039;BME280;46919;45.816;3.104;2023-07-31T00:21:18;98118.41;;;15.47;71.79
61039;BME280;46919;45.816;3.104;2023-07-31T00:23:43;98116.34;;;15.37;72.21
61039;BME280;46919;45.816;3.104;2023-07-31T00:26:09;98107.09;;;15.38;72.38
61039;BME280;46919;45.816;3.104;2023-07-31T00:28:34;98096.00;;;15.45;72.34
61039;BME280;46919;45.816;3.104;2023-07-31T00:31:00;98106.22;;;15.32;72.66
61039;BME280;46919;45.816;3.104;2023-07-31T00:33:25;98104.97;;;15.23;73.08
61039;BME280;46919;45.816;3.104;2023-07-31T00:35:50;98101.84;;;15.14;73.51
61039;BME280;46919;45.816;3.104;2023-07-31T00:38:16;98093.34;;;15.11;73.74
61039;BME280;46919;45.816;3.104;2023-07-31T00:40:41;98092.84;;;15.14;73.66
61039;BME280;46919;45.816;3.104;2023-07-31T00:43:06;98089.56;;;15.12;73.71
61039;BME280;46919;45.816;3.104;2023-07-31T00:45:32;98088.47;;;15.13;73.80
61039;BME280;46919;45.816;3.104;2023-07-31T00:47:58;98082.09;;;15.24;73.60
61039;BME280;46919;45.816;3.104;2023-07-31T00:50:24;98083.53;;;15.10;74.04
61039;BME280;46919;45.816;3.104;2023-07-31T00:52:50;98077.13;;;14.99;74.21
61039;BME280;46919;45.816;3.104;2023-07-31T00:55:16;98072.81;;;15.03;74.69
61039;BME280;46919;45.816;3.104;2023-07-31T00:57:42;98074.97;;;15.01;74.81
61039;BME280;46919;45.816;3.104;2023-07-31T01:00:08;98073.44;;;14.88;75.30
61039;BME280;46919;45.816;3.104;2023-07-31T01:02:34;98073.34;;;14.83;75.43
61039;BME280;46919;45.816;3.104;2023-07-31T01:05:01;98066.25;;;14.82;76.03
61039;BME280;46919;45.816;3.104;2023-07-31T01:07:32;98060.56;;;15.00;74.89
61039;BME280;46919;45.816;3.104;2023-07-31T01:10:02;98058.16;;;14.87;75.62
61039;BME280;46919;45.816;3.104;2023-07-31T01:12:30;98058.66;;;14.84;76.12
61039;BME280;46919;45.816;3.104;2023-07-31T01:15:03;98055.50;;;14.92;75.70
61039;BME280;46919;45.816;3.104;2023-07-31T01:17:28;98061.88;;;14.81;76.05
61039;BME280;46919;45.816;3.104;2023-07-31T01:19:59;98057.16;;;14.76;76.29
61039;BME280;46919;45.816;3.104;2023-07-31T01:27:51;98070.88;;;14.81;76.38
61039;BME280;46919;45.816;3.104;2023-07-31T01:30:22;98071.69;;;14.82;76.58
61039;BME280;46919;45.816;3.104;2023-07-31T01:32:48;98069.03;;;14.70;77.19
61039;BME280;46919;45.816;3.104;2023-07-31T01:35:14;98067.72;;;14.73;77.58
61039;BME280;46919;45.816;3.104;2023-07-31T01:37:40;98070.03;;;14.81;77.11
61039;BME280;46919;45.816;3.104;2023-07-31T01:40:06;98059.97;;;14.98;76.85
61039;BME280;46919;45.816;3.104;2023-07-31T01:42:32;98057.84;;;15.00;76.59
61039;BME280;46919;45.816;3.104;2023-07-31T01:44:57;98064.59;;;14.81;77.43
61039;BME280;46919;45.816;3.104;2023-07-31T01:47:23;98053.47;;;14.65;78.07
61039;BME280;46919;45.816;3.104;2023-07-31T01:49:49;98052.69;;;14.53;78.66
61039;BME280;46919;45.816;3.104;2023-07-31T01:52:14;98052.22;;;14.56;78.84
61039;BME280;46919;45.816;3.104;2023-07-31T01:54:39;98050.88;;;14.59;78.88
61039;BME280;46919;45.816;3.104;2023-07-31T01:57:05;98045.03;;;14.50;78.76
61039;BME280;46919;45.816;3.104;2023-07-31T01:59:30;98046.59;;;14.46;79.10
61039;BME280;46919;45.816;3.104;2023-07-31T02:01:56;98044.97;;;14.45;78.97
61039;BME280;46919;45.816;3.104;2023-07-31T02:04:21;98037.38;;;14.47;78.85
61039;BME280;46919;45.816;3.104;2023-07-31T02:06:46;98035.22;;;14.49;78.78
61039;BME280;46919;45.816;3.104;2023-07-31T02:09:12;98031.94;;;14.47;78.82
61039;BME280;46919;45.816;3.104;2023-07-31T02:11:37;98025.00;;;14.39;79.23
61039;BME280;46919;45.816;3.104;2023-07-31T02:14:02;98019.25;;;14.36;79.78
61039;BME280;46919;45.816;3.104;2023-07-31T02:16:28;98026.78;;;14.34;79.84
61039;BME280;46919;45.816;3.104;2023-07-31T02:18:53;98034.06;;;14.28;80.12
61039;BME280;46919;45.816;3.104;2023-07-31T02:21:19;98036.94;;;14.21;80.50
61039;BME280;46919;45.816;3.104;2023-07-31T02:23:44;98036.19;;;14.26;80.67
61039;BME280;46919;45.816;3.104;2023-07-31T02:26:09;98025.09;;;14.27;80.68
61039;BME280;46919;45.816;3.104;2023-07-31T02:28:35;98027.88;;;14.32;80.43
61039;BME280;46919;45.816;3.104;2023-07-31T02:31:00;98034.56;;;14.42;80.09
61039;BME280;46919;45.816;3.104;2023-07-31T02:33:25;98039.03;;;14.48;79.71
61039;BME280;46919;45.816;3.104;2023-07-31T02:35:51;98028.63;;;14.45;80.06
61039;BME280;46919;45.816;3.104;2023-07-31T02:38:16;98041.00;;;14.36;80.32
61039;BME280;46919;45.816;3.104;2023-07-31T02:40:41;98032.31;;;14.22;80.90
61039;BME280;46919;45.816;3.104;2023-07-31T02:43:08;98025.69;;;14.18;81.15
61039;BME280;46919;45.816;3.104;2023-07-31T02:45:33;98038.25;;;14.19;81.03
61039;BME280;46919;45.816;3.104;2023-07-31T02:47:58;98031.56;;;14.26;81.13
61039;BME280;46919;45.816;3.104;2023-07-31T02:50:24;98023.69;;;14.42;80.67
61039;BME280;46919;45.816;3.104;2023-07-31T02:52:49;98029.44;;;14.28;80.62
61039;BME280;46919;45.816;3.104;2023-07-31T02:55:15;98037.22;;;14.08;81.79
61039;BME280;46919;45.816;3.104;2023-07-31T02:57:40;98043.53;;;13.97;82.24
61039;BME280;46919;45.816;3.104;2023-07-31T03:00:06;98042.88;;;13.89;82.71
61039;BME280;46919;45.816;3.104;2023-07-31T03:02:32;98041.78;;;13.90;82.53
61039;BME280;46919;45.816;3.104;2023-07-31T03:04:57;98045.13;;;13.81;82.61
61039;BME280;46919;45.816;3.104;2023-07-31T03:07:22;98049.63;;;13.75;83.26
61039;BME280;46919;45.816;3.104;2023-07-31T03:09:48;98046.44;;;13.78;83.05
61039;BME280;46919;45.816;3.104;2023-07-31T03:12:13;98052.94;;;13.77;83.22
61039;BME280;46919;45.816;3.104;2023-07-31T03:14:39;98056.72;;;13.76;83.31
61039;BME280;46919;45.816;3.104;2023-07-31T03:17:04;98059.09;;;13.72;83.30
61039;BME280;46919;45.816;3.104;2023-07-31T03:19:32;98066.44;;;13.72;83.45
61039;BME280;46919;45.816;3.104;2023-07-31T03:21:59;98072.94;;;13.71;83.52
61039;BME280;46919;45.816;3.104;2023-07-31T03:24:25;98074.94;;;13.64;83.75
61039;BME280;46919;45.816;3.104;2023-07-31T03:26:50;98073.19;;;13.57;84.18
61039;BME280;46919;45.816;3.104;2023-07-31T03:29:15;98070.38;;;13.52;84.18
61039;BME280;46919;45.816;3.104;2023-07-31T03:31:41;98076.28;;;13.49;84.63
61039;BME280;46919;45.816;3.104;2023-07-31T03:34:06;98067.28;;;13.61;84.44
61039;BME280;46919;45.816;3.104;2023-07-31T03:36:32;98069.41;;;13.70;83.96
61039;BME280;46919;45.816;3.104;2023-07-31T03:38:57;98068.47;;;13.65;83.95
61039;BME280;46919;45.816;3.104;2023-07-31T03:41:23;98075.31;;;13.55;84.39
61039;BME280;46919;45.816;3.104;2023-07-31T03:43:49;98071.44;;;13.51;84.49
61039;BME280;46919;45.816;3.104;2023-07-31T03:46:17;98062.69;;;13.49;84.46
61039;BME280;46919;45.816;3.104;2023-07-31T03:48:42;98064.59;;;13.49;84.93
61039;BME280;46919;45.816;3.104;2023-07-31T03:51:08;98053.97;;;13.47;84.89
61039;BME280;46919;45.816;3.104;2023-07-31T03:53:33;98063.06;;;13.41;84.85
61039;BME280;46919;45.816;3.104;2023-07-31T03:55:58;98066.50;;;13.36;85.34
61039;BME280;46919;45.816;3.104;2023-07-31T03:58:24;98063.66;;;13.31;85.68
61039;BME280;46919;45.816;3.104;2023-07-31T04:00:49;98059.88;;;13.32;85.88
61039;BME280;46919;45.816;3.104;2023-07-31T04:03:14;98062.13;;;13.47;85.33
61039;BME280;46919;45.816;3.104;2023-07-31T04:05:40;98065.03;;;13.57;84.67
61039;BME280;46919;45.816;3.104;2023-07-31T04:08:05;98072.50;;;13.38;85.22
61039;BME280;46919;45.816;3.104;2023-07-31T04:10:31;98066.75;;;13.23;86.13
61039;BME280;46919;45.816;3.104;2023-07-31T04:12:59;98065.78;;;13.29;86.21
61039;BME280;46919;45.816;3.104;2023-07-31T04:15:25;98061.41;;;13.40;85.34
61039;BME280;46919;45.816;3.104;2023-07-31T04:17:50;98063.78;;;13.25;85.96
61039;BME280;46919;45.816;3.104;2023-07-31T04:20:16;98051.16;;;13.18;86.53
61039;BME280;46919;45.816;3.104;2023-07-31T04:22:41;98052.69;;;13.38;86.18
61039;BME280;46919;45.816;3.104;2023-07-31T04:25:06;98051.47;;;13.57;85.01
61039;BME280;46919;45.816;3.104;2023-07-31T04:27:32;98043.84;;;13.43;85.49
61039;BME280;46919;45.816;3.104;2023-07-31T04:29:57;98048.22;;;13.20;86.34
61039;BME280;46919;45.816;3.104;2023-07-31T04:32:23;98041.22;;;13.24;86.88
61039;BME280;46919;45.816;3.104;2023-07-31T04:34:48;98038.53;;;13.12;87.13
61039;BME280;46919;45.816;3.104;2023-07-31T04:37:13;98047.03;;;13.04;87.80
61039;BME280;46919;45.816;3.104;2023-07-31T04:39:39;98040.44;;;13.00;87.91
61039;BME280;46919;45.816;3.104;2023-07-31T04:42:04;98041.25;;;13.00;88.71
61039;BME280;46919;45.816;3.104;2023-07-31T04:44:30;98034.50;;;13.27;87.06
61039;BME280;46919;45.816;3.104;2023-07-31T04:46:55;98030.84;;;13.21;87.02
61039;BME280;46919;45.816;3.104;2023-07-31T04:49:21;98033.94;;;13.13;87.28
61039;BME280;46919;45.816;3.104;2023-07-31T04:51:47;98040.31;;;13.07;88.09
61039;BME280;46919;45.816;3.104;2023-07-31T04:54:12;98040.53;;;13.05;87.98
61039;BME280;46919;45.816;3.104;2023-07-31T04:56:40;98036.78;;;13.06;88.10
61039;BME280;46919;45.816;3.104;2023-07-31T04:59:05;98030.75;;;13.28;87.36
61039;BME280;46919;45.816;3.104;2023-07-31T05:01:31;98031.69;;;13.45;86.75
61039;BME280;46919;45.816;3.104;2023-07-31T05:03:56;98044.66;;;13.43;86.92
61039;BME280;46919;45.816;3.104;2023-07-31T05:06:21;98042.53;;;13.45;86.86
61039;BME280;46919;45.816;3.104;2023-07-31T05:08:47;98032.63;;;13.39;87.14
61039;BME280;46919;45.816;3.104;2023-07-31T05:11:12;98035.78;;;13.48;87.15
61039;BME280;46919;45.816;3.104;2023-07-31T05:13:37;98044.59;;;13.67;86.62
61039;BME280;46919;45.816;3.104;2023-07-31T05:16:03;98044.09;;;13.70;86.29
61039;BME280;46919;45.816;3.104;2023-07-31T05:18:29;98046.06;;;13.86;86.03
61039;BME280;46919;45.816;3.104;2023-07-31T05:20:54;98038.66;;;13.82;85.88
61039;BME280;46919;45.816;3.104;2023-07-31T05:23:19;98053.91;;;13.71;86.58
61039;BME280;46919;45.816;3.104;2023-07-31T05:25:45;98051.69;;;13.68;87.02
61039;BME280;46919;45.816;3.104;2023-07-31T05:28:11;98056.16;;;13.74;87.04
61039;BME280;46919;45.816;3.104;2023-07-31T05:30:37;98056.72;;;14.05;85.63
61039;BME280;46919;45.816;3.104;2023-07-31T05:33:02;98062.22;;;14.22;85.15
61039;BME280;46919;45.816;3.104;2023-07-31T05:35:28;98053.97;;;14.34;84.58
61039;BME280;46919;45.816;3.104;2023-07-31T05:37:53;98045.84;;;14.50;84.13
61039;BME280;46919;45.816;3.104;2023-07-31T05:40:18;98052.31;;;14.61;83.46
61039;BME280;46919;45.816;3.104;2023-07-31T05:42:44;98050.25;;;14.68;83.13
61039;BME280;46919;45.816;3.104;2023-07-31T05:45:09;98050.75;;;14.65;82.93
61039;BME280;46919;45.816;3.104;2023-07-31T05:47:35;98057.50;;;14.63;83.28
61039;BME280;46919;45.816;3.104;2023-07-31T05:50:00;98062.72;;;14.64;83.70
61039;BME280;46919;45.816;3.104;2023-07-31T05:52:26;98051.97;;;14.75;83.39
61039;BME280;46919;45.816;3.104;2023-07-31T05:54:52;98053.63;;;14.76;83.30
61039;BME280;46919;45.816;3.104;2023-07-31T05:57:17;98049.13;;;14.81;82.93
61039;BME280;46919;45.816;3.104;2023-07-31T05:59:42;98053.88;;;14.74;82.81
61039;BME280;46919;45.816;3.104;2023-07-31T06:02:08;98053.38;;;14.77;82.50
61039;BME280;46919;45.816;3.104;2023-07-31T06:04:33;98054.69;;;14.75;82.40
61039;BME280;46919;45.816;3.104;2023-07-31T06:06:59;98059.31;;;14.74;81.98
61039;BME280;46919;45.816;3.104;2023-07-31T06:09:25;98050.91;;;14.76;81.56
61039;BME280;46919;45.816;3.104;2023-07-31T06:11:51;98052.81;;;14.75;81.10
61039;BME280;46919;45.816;3.104;2023-07-31T06:14:16;98052.06;;;14.80;80.97
61039;BME280;46919;45.816;3.104;2023-07-31T06:16:41;98048.25;;;14.81;80.66
61039;BME280;46919;45.816;3.104;2023-07-31T06:19:07;98042.25;;;14.96;80.45
61039;BME280;46919;45.816;3.104;2023-07-31T06:21:33;98048.75;;;15.12;80.17
61039;BME280;46919;45.816;3.104;2023-07-31T06:23:58;98058.03;;;15.16;79.76
61039;BME280;46919;45.816;3.104;2023-07-31T06:26:24;98052.09;;;15.19;79.39
61039;BME280;46919;45.816;3.104;2023-07-31T06:28:49;98046.81;;;15.29;79.25
61039;BME280;46919;45.816;3.104;2023-07-31T06:31:14;98040.84;;;15.32;78.85
61039;BME280;46919;45.816;3.104;2023-07-31T06:33:40;98039.00;;;15.38;78.26
61039;BME280;46919;45.816;3.104;2023-07-31T06:36:05;98039.25;;;15.36;78.03
61039;BME280;46919;45.816;3.104;2023-07-31T06:38:31;98040.53;;;15.51;78.09
61039;BME280;46919;45.816;3.104;2023-07-31T06:40:56;98040.03;;;15.54;77.52
61039;BME280;46919;45.816;3.104;2023-07-31T06:43:21;98043.91;;;15.58;77.53
61039;BME280;46919;45.816;3.104;2023-07-31T06:45:47;98042.28;;;15.62;76.92
61039;BME280;46919;45.816;3.104;2023-07-31T06:48:16;98043.25;;;15.73;76.63
61039;BME280;46919;45.816;3.104;2023-07-31T06:50:41;98042.06;;;15.86;75.93
61039;BME280;46919;45.816;3.104;2023-07-31T06:53:07;98038.28;;;15.87;75.86
61039;BME280;46919;45.816;3.104;2023-07-31T06:55:32;98035.94;;;15.96;76.22
61039;BME280;46919;45.816;3.104;2023-07-31T06:57:57;98035.28;;;16.16;75.43
61039;BME280;46919;45.816;3.104;2023-07-31T07:00:23;98026.66;;;16.24;74.79
61039;BME280;46919;45.816;3.104;2023-07-31T07:02:49;98021.81;;;16.31;74.08
61039;BME280;46919;45.816;3.104;2023-07-31T07:05:15;98028.72;;;16.39;72.94
61039;BME280;46919;45.816;3.104;2023-07-31T07:07:41;98029.56;;;16.44;73.29
61039;BME280;46919;45.816;3.104;2023-07-31T07:10:07;98029.09;;;16.53;73.67
61039;BME280;46919;45.816;3.104;2023-07-31T07:12:33;98036.81;;;16.61;73.13
61039;BME280;46919;45.816;3.104;2023-07-31T07:15:01;98038.25;;;16.69;72.84
61039;BME280;46919;45.816;3.104;2023-07-31T07:17:28;98047.28;;;16.74;72.24
61039;BME280;46919;45.816;3.104;2023-07-31T07:19:56;98044.56;;;16.79;71.64
61039;BME280;46919;45.816;3.104;2023-07-31T07:22:21;98043.63;;;16.91;71.35
61039;BME280;46919;45.816;3.104;2023-07-31T07:24:47;98043.13;;;16.99;71.73
61039;BME280;46919;45.816;3.104;2023-07-31T07:27:12;98036.56;;;17.00;71.56
61039;BME280;46919;45.816;3.104;2023-07-31T07:29:38;98036.31;;;17.01;71.23
61039;BME280;46919;45.816;3.104;2023-07-31T07:32:03;98027.31;;;17.06;71.15
61039;BME280;46919;45.816;3.104;2023-07-31T07:34:29;98026.28;;;17.12;71.56
61039;BME280;46919;45.816;3.104;2023-07-31T07:36:54;98021.44;;;17.25;70.81
61039;BME280;46919;45.816;3.104;2023-07-31T07:39:20;98023.09;;;17.31;70.05
61039;BME280;46919;45.816;3.104;2023-07-31T07:41:46;98010.00;;;17.33;69.90
61039;BME280;46919;45.816;3.104;2023-07-31T07:44:12;98009.22;;;17.43;69.31
61039;BME280;46919;45.816;3.104;2023-07-31T07:46:38;98003.47;;;17.44;69.13
61039;BME280;46919;45.816;3.104;2023-07-31T07:49:03;98005.16;;;17.55;69.08
61039;BME280;46919;45.816;3.104;2023-07-31T07:51:28;97998.66;;;17.67;69.32
61039;BME280;46919;45.816;3.104;2023-07-31T07:53:55;98007.97;;;17.76;68.28
61039;BME280;46919;45.816;3.104;2023-07-31T07:56:21;98009.34;;;17.84;68.17
61039;BME280;46919;45.816;3.104;2023-07-31T07:58:48;98016.53;;;17.90;67.94
61039;BME280;46919;45.816;3.104;2023-07-31T08:01:15;98017.38;;;17.96;67.57
61039;BME280;46919;45.816;3.104;2023-07-31T08:03:40;98006.44;;;18.06;67.10
61039;BME280;46919;45.816;3.104;2023-07-31T08:06:05;98008.09;;;18.17;67.40
61039;BME280;46919;45.816;3.104;2023-07-31T08:08:31;98006.47;;;18.26;66.13
61039;BME280;46919;45.816;3.104;2023-07-31T08:10:56;97997.16;;;18.38;66.01
61039;BME280;46919;45.816;3.104;2023-07-31T08:13:21;97995.25;;;18.49;66.20
61039;BME280;46919;45.816;3.104;2023-07-31T08:15:47;97986.22;;;18.58;66.02
61039;BME280;46919;45.816;3.104;2023-07-31T08:18:12;97991.41;;;18.65;65.88
61039;BME280;46919;45.816;3.104;2023-07-31T08:20:37;97980.75;;;18.69;65.09
61039;BME280;46919;45.816;3.104;2023-07-31T08:23:03;97968.44;;;18.76;64.22
61039;BME280;46919;45.816;3.104;2023-07-31T08:25:29;97960.47;;;18.90;64.09
61039;BME280;46919;45.816;3.104;2023-07-31T08:27:55;97956.06;;;18.99;62.96
61039;BME280;46919;45.816;3.104;2023-07-31T08:30:21;97954.09;;;19.15;63.19
61039;BME280;46919;45.816;3.104;2023-07-31T08:32:46;97940.09;;;19.22;62.62
61039;BME280;46919;45.816;3.104;2023-07-31T08:35:12;97934.34;;;19.29;62.18
61039;BME280;46919;45.816;3.104;2023-07-31T08:37:38;97929.59;;;19.40;61.83
61039;BME280;46919;45.816;3.104;2023-07-31T08:40:04;97934.53;;;19.48;61.38
61039;BME280;46919;45.816;3.104;2023-07-31T08:42:30;97933.94;;;19.56;60.84
61039;BME280;46919;45.816;3.104;2023-07-31T08:44:56;97922.09;;;19.66;60.65
61039;BME280;46919;45.816;3.104;2023-07-31T08:47:22;97924.22;;;19.74;59.15
61039;BME280;46919;45.816;3.104;2023-07-31T08:49:49;97929.38;;;19.91;58.98
61039;BME280;46919;45.816;3.104;2023-07-31T08:52:15;97931.44;;;20.04;58.96
61039;BME280;46919;45.816;3.104;2023-07-31T08:54:41;97917.44;;;20.11;57.63
61039;BME280;46919;45.816;3.104;2023-07-31T08:57:07;97913.81;;;20.16;57.35
61039;BME280;46919;45.816;3.104;2023-07-31T08:59:34;97908.88;;;20.18;56.79
61039;BME280;46919;45.816;3.104;2023-07-31T09:02:07;97913.72;;;20.26;56.58
61039;BME280;46919;45.816;3.104;2023-07-31T09:04:34;97904.53;;;20.41;55.41
61039;BME280;46919;45.816;3.104;2023-07-31T09:07:01;97907.94;;;20.57;54.70
61039;BME280;46919;45.816;3.104;2023-07-31T09:09:28;97899.38;;;20.69;54.66
61039;BME280;46919;45.816;3.104;2023-07-31T09:11:54;97899.66;;;20.91;53.98
61039;BME280;46919;45.816;3.104;2023-07-31T09:14:21;97901.47;;;21.01;53.87
61039;BME280;46919;45.816;3.104;2023-07-31T09:16:57;97889.38;;;21.02;52.29
61039;BME280;46919;45.816;3.104;2023-07-31T09:19:35;97890.72;;;21.05;51.49
61039;BME280;46919;45.816;3.104;2023-07-31T09:22:05;97898.84;;;21.15;52.54
61039;BME280;46919;45.816;3.104;2023-07-31T09:24:33;97898.34;;;21.32;52.97
61039;BME280;46919;45.816;3.104;2023-07-31T09:27:00;97891.13;;;21.36;52.76
61039;BME280;46919;45.816;3.104;2023-07-31T09:29:29;97894.13;;;21.40;52.91
61039;BME280;46919;45.816;3.104;2023-07-31T09:31:55;97892.19;;;21.40;51.62
61039;BME280;46919;45.816;3.104;2023-07-31T09:34:37;97879.56;;;21.39;51.35
61039;BME280;46919;45.816;3.104;2023-07-31T09:37:05;97888.00;;;21.67;52.74
61039;BME280;46919;45.816;3.104;2023-07-31T09:39:31;97878.47;;;21.97;51.84
61039;BME280;46919;45.816;3.104;2023-07-31T09:41:56;97862.16;;;22.01;50.73
61039;BME280;46919;45.816;3.104;2023-07-31T09:44:37;97870.56;;;22.10;49.71
61039;BME280;46919;45.816;3.104;2023-07-31T09:47:05;97872.81;;;22.21;49.98
61039;BME280;46919;45.816;3.104;2023-07-31T09:49:30;97863.91;;;22.30;48.92
61039;BME280;46919;45.816;3.104;2023-07-31T09:51:55;97861.78;;;22.40;49.63
61039;BME280;46919;45.816;3.104;2023-07-31T09:54:21;97864.56;;;22.54;49.19
61039;BME280;46919;45.816;3.104;2023-07-31T09:56:48;97861.44;;;22.75;50.04
61039;BME280;46919;45.816;3.104;2023-07-31T09:59:20;97847.88;;;22.92;48.64
61039;BME280;46919;45.816;3.104;2023-07-31T10:01:48;97851.53;;;22.88;48.64
61039;BME280;46919;45.816;3.104;2023-07-31T10:04:15;97849.69;;;22.83;48.32
61039;BME280;46919;45.816;3.104;2023-07-31T10:06:46;97837.34;;;22.67;47.75
61039;BME280;46919;45.816;3.104;2023-07-31T10:09:15;97847.34;;;22.76;48.38
61039;BME280;46919;45.816;3.104;2023-07-31T10:11:49;97838.44;;;23.07;48.39
61039;BME280;46919;45.816;3.104;2023-07-31T10:14:20;97840.63;;;23.10;47.41
61039;BME280;46919;45.816;3.104;2023-07-31T10:16:45;97844.19;;;22.97;48.31
61039;BME280;46919;45.816;3.104;2023-07-31T10:19:11;97836.84;;;23.06;48.14
61039;BME280;46919;45.816;3.104;2023-07-31T10:21:37;97834.31;;;23.10;47.65
61039;BME280;46919;45.816;3.104;2023-07-31T10:24:04;97828.16;;;23.27;46.77
61039;BME280;46919;45.816;3.104;2023-07-31T10:26:31;97823.94;;;23.29;47.07
61039;BME280;46919;45.816;3.104;2023-07-31T10:28:58;97823.72;;;23.40;46.37
61039;BME280;46919;45.816;3.104;2023-07-31T10:31:23;97823.63;;;23.67;47.33
61039;BME280;46919;45.816;3.104;2023-07-31T10:33:50;97809.34;;;23.88;45.93
61039;BME280;46919;45.816;3.104;2023-07-31T10:36:20;97812.28;;;23.92;47.56
61039;BME280;46919;45.816;3.104;2023-07-31T10:38:48;97813.88;;;24.07;46.05
61039;BME280;46919;45.816;3.104;2023-07-31T10:41:14;97805.09;;;24.04;44.91
61039;BME280;46919;45.816;3.104;2023-07-31T10:43:40;97808.34;;;24.07;45.57
61039;BME280;46919;45.816;3.104;2023-07-31T10:46:11;97807.97;;;24.22;44.79
61039;BME280;46919;45.816;3.104;2023-07-31T10:48:38;97814.38;;;24.40;45.81
61039;BME280;46919;45.816;3.104;2023-07-31T10:51:10;97811.31;;;24.50;44.07
61039;BME280;46919;45.816;3.104;2023-07-31T10:53:38;97805.88;;;24.59;43.34
61039;BME280;46919;45.816;3.104;2023-07-31T10:56:08;97801.84;;;24.65;42.82
61039;BME280;46919;45.816;3.104;2023-07-31T10:58:36;97797.81;;;24.71;43.85
61039;BME280;46919;45.816;3.104;2023-07-31T11:01:03;97795.28;;;25.01;43.21
61039;BME280;46919;45.816;3.104;2023-07-31T11:03:49;97781.13;;;24.94;41.94
61039;BME280;46919;45.816;3.104;2023-07-31T11:06:18;97773.00;;;25.06;43.52
61039;BME280;46919;45.816;3.104;2023-07-31T11:08:50;97777.63;;;25.37;43.07
61039;BME280;46919;45.816;3.104;2023-07-31T11:11:17;97780.38;;;25.55;42.36
61039;BME280;46919;45.816;3.104;2023-07-31T11:16:12;97781.19;;;25.64;41.45
61039;BME280;46919;45.816;3.104;2023-07-31T11:18:39;97768.31;;;25.77;41.33
61039;BME280;46919;45.816;3.104;2023-07-31T11:21:06;97768.31;;;25.85;40.79
61039;BME280;46919;45.816;3.104;2023-07-31T11:23:31;97764.38;;;25.95;41.30
61039;BME280;46919;45.816;3.104;2023-07-31T11:26:00;97763.25;;;26.14;40.22
61039;BME280;46919;45.816;3.104;2023-07-31T11:28:32;97759.44;;;26.18;40.04
61039;BME280;46919;45.816;3.104;2023-07-31T11:30:58;97757.63;;;26.31;40.42
61039;BME280;46919;45.816;3.104;2023-07-31T11:33:23;97764.09;;;26.44;40.10
61039;BME280;46919;45.816;3.104;2023-07-31T11:35:49;97749.66;;;26.60;40.69
61039;BME280;46919;45.816;3.104;2023-07-31T11:38:28;97743.66;;;26.57;38.67
61039;BME280;46919;45.816;3.104;2023-07-31T11:40:55;97744.59;;;26.70;40.09
61039;BME280;46919;45.816;3.104;2023-07-31T11:43:21;97736.50;;;26.86;40.06
61039;BME280;46919;45.816;3.104;2023-07-31T11:45:50;97729.59;;;26.71;39.90
61039;BME280;46919;45.816;3.104;2023-07-31T11:48:31;97711.41;;;26.83;39.26
61039;BME280;46919;45.816;3.104;2023-07-31T11:51:05;97712.28;;;27.17;39.66
61039;BME280;46919;45.816;3.104;2023-07-31T11:56:10;97696.25;;;27.64;40.41
61039;BME280;46919;45.816;3.104;2023-07-31T11:58:37;97700.44;;;27.83;40.20
61039;BME280;46919;45.816;3.104;2023-07-31T12:01:04;97691.38;;;27.95;39.96
61039;BME280;46919;45.816;3.104;2023-07-31T12:03:31;97686.31;;;28.09;37.57
61039;BME280;46919;45.816;3.104;2023-07-31T12:05:58;97681.91;;;27.75;38.32
61039;BME280;46919;45.816;3.104;2023-07-31T12:08:24;97685.94;;;27.98;37.81
61039;BME280;46919;45.816;3.104;2023-07-31T12:10:51;97673.91;;;28.19;37.55
61039;BME280;46919;45.816;3.104;2023-07-31T12:13:24;97671.69;;;28.25;38.13
61039;BME280;46919;45.816;3.104;2023-07-31T12:15:54;97674.84;;;28.48;36.63
61039;BME280;46919;45.816;3.104;2023-07-31T12:18:21;97678.31;;;28.45;36.97
61039;BME280;46919;45.816;3.104;2023-07-31T12:20:48;97679.00;;;28.29;36.05
61039;BME280;46919;45.816;3.104;2023-07-31T12:23:19;97667.66;;;28.22;36.11
61039;BME280;46919;45.816;3.104;2023-07-31T12:28:28;97657.34;;;28.72;35.35
61039;BME280;46919;45.816;3.104;2023-07-31T12:30:57;97658.84;;;28.57;34.94
61039;BME280;46919;45.816;3.104;2023-07-31T12:33:32;97652.84;;;28.30;34.10
61039;BME280;46919;45.816;3.104;2023-07-31T12:36:01;97650.06;;;28.30;35.19
61039;BME280;46919;45.816;3.104;2023-07-31T12:38:26;97655.72;;;28.46;35.54
61039;BME280;46919;45.816;3.104;2023-07-31T12:40:51;97641.16;;;28.62;35.61
61039;BME280;46919;45.816;3.104;2023-07-31T12:43:17;97643.22;;;28.77;34.97
61039;BME280;46919;45.816;3.104;2023-07-31T12:45:42;97645.75;;;28.82;34.55
61039;BME280;46919;45.816;3.104;2023-07-31T12:48:08;97635.69;;;28.53;34.63
61039;BME280;46919;45.816;3.104;2023-07-31T12:50:33;97625.69;;;28.77;34.72
61039;BME280;46919;45.816;3.104;2023-07-31T12:53:01;97623.91;;;28.97;34.91
61039;BME280;46919;45.816;3.104;2023-07-31T12:55:28;97616.94;;;29.03;34.87
61039;BME280;46919;45.816;3.104;2023-07-31T12:57:54;97618.41;;;29.13;34.20
61039;BME280;46919;45.816;3.104;2023-07-31T13:00:19;97612.56;;;28.89;34.04
61039;BME280;46919;45.816;3.104;2023-07-31T13:02:44;97614.88;;;29.00;34.61
61039;BME280;46919;45.816;3.104;2023-07-31T13:05:10;97606.34;;;29.08;33.83
61039;BME280;46919;45.816;3.104;2023-07-31T13:07:35;97601.25;;;29.11;33.79
61039;BME280;46919;45.816;3.104;2023-07-31T13:10:01;97596.22;;;29.29;34.89